createdAt,value
2022-07-28T00:02:21.967Z,17.31
2022-07-28T00:05:19.498Z,17.29
2022-07-28T00:08:17.348Z,17.27
2022-07-28T00:11:14.808Z,17.25
2022-07-28T00:14:12.438Z,17.23
2022-07-28T00:17:10.270Z,17.22
2022-07-28T00:20:07.779Z,17.21
2022-07-28T00:23:05.265Z,17.20
2022-07-28T00:26:02.762Z,17.19
2022-07-28T00:29:00.230Z,17.18
2022-07-28T00:31:57.738Z,17.17
2022-07-28T00:34:55.506Z,17.16
2022-07-28T00:37:53.655Z,17.16
2022-07-28T00:41:09.955Z,17.14
2022-07-28T00:44:07.473Z,17.14
2022-07-28T00:47:04.982Z,17.13
2022-07-28T00:50:02.511Z,17.12
2022-07-28T00:52:59.977Z,17.12
2022-07-28T00:56:03.647Z,17.12
2022-07-28T00:59:04.083Z,17.10
2022-07-28T01:02:01.711Z,17.09
2022-07-28T01:04:59.378Z,17.07
2022-07-28T01:07:56.840Z,17.06
2022-07-28T01:10:54.304Z,17.05
2022-07-28T01:13:51.791Z,17.03
2022-07-28T01:16:49.297Z,17.02
2022-07-28T01:19:46.754Z,17.00
2022-07-28T01:22:44.243Z,16.99
2022-07-28T01:25:48.199Z,16.97
2022-07-28T01:28:46.828Z,16.96
2022-07-28T01:31:46.267Z,16.95
2022-07-28T01:34:44.574Z,16.94
2022-07-28T01:37:42.084Z,16.93
2022-07-28T01:40:39.541Z,16.91
2022-07-28T01:43:37.018Z,16.90
2022-07-28T01:46:34.515Z,16.89
2022-07-28T01:49:32.044Z,16.87
2022-07-28T01:52:29.483Z,16.88
2022-07-28T01:55:27.023Z,16.88
2022-07-28T01:58:24.494Z,16.89
2022-07-28T02:01:22.014Z,16.90
2022-07-28T02:04:19.554Z,16.90
2022-07-28T02:07:17.012Z,16.92
2022-07-28T02:10:14.501Z,16.93
2022-07-28T02:13:11.994Z,16.95
2022-07-28T02:16:09.520Z,16.96
2022-07-28T02:19:07.031Z,17.00
2022-07-28T02:22:05.029Z,17.03
2022-07-28T02:25:03.209Z,17.06
2022-07-28T02:28:00.677Z,17.08
2022-07-28T02:30:58.170Z,17.10
2022-07-28T02:33:58.895Z,17.11
2022-07-28T02:36:58.115Z,17.10
2022-07-28T02:40:00.359Z,17.08
2022-07-28T02:42:58.256Z,17.07
2022-07-28T02:45:55.804Z,17.05
2022-07-28T02:48:53.349Z,17.05
2022-07-28T02:51:50.839Z,17.05
2022-07-28T02:54:48.357Z,17.05
2022-07-28T02:57:46.375Z,17.05
2022-07-28T03:00:43.868Z,17.06
2022-07-28T03:03:44.042Z,17.06
2022-07-28T03:06:41.852Z,17.04
2022-07-28T03:09:39.342Z,17.03
2022-07-28T03:12:36.814Z,17.01
2022-07-28T03:15:34.288Z,16.97
2022-07-28T03:18:31.732Z,16.93
2022-07-28T03:21:29.218Z,16.90
2022-07-28T03:24:26.732Z,16.86
2022-07-28T03:27:24.208Z,16.83
2022-07-28T03:30:21.759Z,16.80
2022-07-28T03:33:19.245Z,16.77
2022-07-28T03:36:16.724Z,16.75
2022-07-28T03:39:15.944Z,16.73
2022-07-28T03:42:13.507Z,16.72
2022-07-28T03:45:11.018Z,16.71
2022-07-28T03:48:08.840Z,16.70
2022-07-28T03:51:06.362Z,16.69
2022-07-28T03:54:03.831Z,16.69
2022-07-28T03:57:01.335Z,16.67
2022-07-28T03:59:58.833Z,16.67
2022-07-28T04:02:56.407Z,16.69
2022-07-28T04:05:53.976Z,16.69
2022-07-28T04:08:51.789Z,16.71
2022-07-28T04:11:49.269Z,16.73
2022-07-28T04:14:46.736Z,16.75
2022-07-28T04:17:44.297Z,16.77
2022-07-28T04:20:41.753Z,16.79
2022-07-28T04:23:39.248Z,16.80
2022-07-28T04:26:36.732Z,16.83
2022-07-28T04:29:34.214Z,16.84
2022-07-28T04:32:31.678Z,16.87
2022-07-28T04:35:29.132Z,16.89
2022-07-28T04:38:26.622Z,16.92
2022-07-28T04:41:24.094Z,16.94
2022-07-28T04:44:21.565Z,16.96
2022-07-28T04:47:19.049Z,16.97
2022-07-28T04:50:19.081Z,16.98
2022-07-28T04:53:18.386Z,17.00
2022-07-28T04:56:15.873Z,17.02
2022-07-28T04:59:13.400Z,17.05
2022-07-28T05:02:13.669Z,17.09
2022-07-28T05:05:11.225Z,17.13
2022-07-28T05:08:09.370Z,17.18
2022-07-28T05:11:06.874Z,17.24
2022-07-28T05:14:04.387Z,17.30
2022-07-28T05:17:01.923Z,17.37
2022-07-28T05:19:59.458Z,17.44
2022-07-28T05:22:58.575Z,17.52
2022-07-28T05:25:56.189Z,17.60
2022-07-28T05:28:53.653Z,17.66
2022-07-28T05:31:51.155Z,17.73
2022-07-28T05:34:48.672Z,17.80
2022-07-28T05:37:46.151Z,17.86
2022-07-28T05:40:43.630Z,17.95
2022-07-28T05:43:41.106Z,18.02
2022-07-28T05:46:38.580Z,18.10
2022-07-28T05:49:36.047Z,18.19
2022-07-28T05:52:33.505Z,18.27
2022-07-28T05:55:31.040Z,18.34
2022-07-28T05:58:28.539Z,18.41
2022-07-28T06:01:26.024Z,18.49
2022-07-28T06:04:27.018Z,18.56
2022-07-28T06:07:43.490Z,18.65
2022-07-28T06:11:02.095Z,18.74
2022-07-28T06:13:59.602Z,18.85
2022-07-28T06:16:57.109Z,18.95
2022-07-28T06:19:54.619Z,19.03
2022-07-28T06:22:52.118Z,19.11
2022-07-28T06:25:49.626Z,19.17
2022-07-28T06:28:47.140Z,19.24
2022-07-28T06:31:45.002Z,19.33
2022-07-28T06:34:42.509Z,19.42
2022-07-28T06:37:39.987Z,19.53
2022-07-28T06:40:37.514Z,19.63
2022-07-28T06:43:38.790Z,19.73
2022-07-28T06:46:36.950Z,19.83
2022-07-28T06:49:34.450Z,19.95
2022-07-28T06:52:31.941Z,20.07
2022-07-28T06:55:35.543Z,20.18
2022-07-28T06:58:35.675Z,20.31
2022-07-28T07:01:33.295Z,20.46
2022-07-28T07:04:30.887Z,20.61
2022-07-28T07:07:28.469Z,20.78
2022-07-28T07:10:26.065Z,20.96
2022-07-28T07:13:23.633Z,21.18
2022-07-28T07:16:21.202Z,21.40
2022-07-28T07:19:18.721Z,21.64
2022-07-28T07:22:17.134Z,21.87
2022-07-28T07:25:14.616Z,22.09
2022-07-28T07:28:12.093Z,22.34
2022-07-28T07:31:09.657Z,22.63
2022-07-28T07:34:07.170Z,22.92
2022-07-28T07:37:04.646Z,23.04
2022-07-28T07:40:02.205Z,23.07
2022-07-28T07:42:59.660Z,23.11
2022-07-28T07:45:57.155Z,23.17
2022-07-28T07:48:54.665Z,23.20
2022-07-28T07:51:52.161Z,23.21
2022-07-28T07:54:49.631Z,23.27
2022-07-28T07:57:47.097Z,23.43
2022-07-28T08:00:44.561Z,23.61
2022-07-28T08:03:42.828Z,23.74
2022-07-28T08:06:40.281Z,23.84
2022-07-28T08:09:38.031Z,24.05
2022-07-28T08:12:35.507Z,24.43
2022-07-28T08:15:32.981Z,24.74
2022-07-28T08:18:30.451Z,24.93
2022-07-28T08:21:27.937Z,25.10
2022-07-28T08:24:32.292Z,25.40
2022-07-28T08:27:31.711Z,25.82
2022-07-28T08:30:32.755Z,26.30
2022-07-28T08:33:30.693Z,26.79
2022-07-28T08:36:28.212Z,27.26
2022-07-28T08:39:25.832Z,27.72
2022-07-28T08:42:23.336Z,28.11
2022-07-28T08:45:20.834Z,28.34
2022-07-28T08:48:18.311Z,28.43
2022-07-28T08:51:15.793Z,28.60
2022-07-28T08:54:14.586Z,28.89
2022-07-28T08:57:12.533Z,29.07
2022-07-28T09:00:10.069Z,29.29
2022-07-28T09:03:07.627Z,29.48
2022-07-28T09:06:05.291Z,29.65
2022-07-28T09:09:02.768Z,29.86
2022-07-28T09:12:00.303Z,30.16
2022-07-28T09:14:57.780Z,30.44
2022-07-28T09:17:55.774Z,30.64
2022-07-28T09:20:53.278Z,30.78
2022-07-28T09:23:50.776Z,31.03
2022-07-28T09:26:48.260Z,31.38
2022-07-28T09:29:45.716Z,31.75
2022-07-28T09:32:43.205Z,31.97
2022-07-28T09:35:40.838Z,32.12
2022-07-28T09:38:38.401Z,32.30
2022-07-28T09:41:35.868Z,32.70
2022-07-28T09:44:33.359Z,33.27
2022-07-28T09:47:33.460Z,33.74
2022-07-28T09:50:31.910Z,34.26
2022-07-28T09:53:30.218Z,34.70
2022-07-28T09:56:30.760Z,34.96
2022-07-28T09:59:29.125Z,35.13
2022-07-28T10:02:26.811Z,35.17
2022-07-28T10:05:24.297Z,35.01
2022-07-28T10:08:21.764Z,34.80
2022-07-28T10:11:19.240Z,34.40
2022-07-28T10:14:18.868Z,33.86
2022-07-28T10:17:16.353Z,33.43
2022-07-28T10:20:13.879Z,33.37
2022-07-28T10:23:12.885Z,33.59
2022-07-28T10:26:11.054Z,33.47
2022-07-28T10:29:10.635Z,33.05
2022-07-28T10:32:08.165Z,32.82
2022-07-28T10:35:05.885Z,32.92
2022-07-28T10:38:03.371Z,33.26
2022-07-28T10:41:00.877Z,33.67
2022-07-28T10:43:58.376Z,34.06
2022-07-28T10:46:56.355Z,33.99
2022-07-28T10:49:53.862Z,33.76
2022-07-28T10:52:54.824Z,33.61
2022-07-28T10:55:56.467Z,33.64
2022-07-28T10:58:53.989Z,33.95
2022-07-28T11:01:51.704Z,34.38
2022-07-28T11:04:51.863Z,34.81
2022-07-28T11:07:49.367Z,35.13
2022-07-28T11:10:46.842Z,35.20
2022-07-28T11:13:45.372Z,35.33
2022-07-28T11:16:48.343Z,35.40
2022-07-28T11:19:55.883Z,35.54
2022-07-28T11:23:03.321Z,35.68
2022-07-28T11:26:05.285Z,35.78
2022-07-28T11:29:04.090Z,35.94
2022-07-28T11:32:01.561Z,36.10
2022-07-28T11:34:59.029Z,36.36
2022-07-28T11:37:56.493Z,36.63
2022-07-28T11:40:54.016Z,36.81
2022-07-28T11:43:51.467Z,36.98
2022-07-28T11:46:49.346Z,37.15
2022-07-28T11:49:50.266Z,37.29
2022-07-28T11:52:47.817Z,37.36
2022-07-28T11:55:55.542Z,37.42
2022-07-28T11:59:00.201Z,37.55
2022-07-28T12:01:57.838Z,37.63
2022-07-28T12:04:55.443Z,37.68
2022-07-28T12:07:53.013Z,37.60
2022-07-28T12:10:55.277Z,37.43
2022-07-28T12:13:53.382Z,37.34
2022-07-28T12:16:50.960Z,37.31
2022-07-28T12:19:48.501Z,37.34
2022-07-28T12:22:46.001Z,37.39
2022-07-28T12:25:43.537Z,37.44
2022-07-28T12:28:41.018Z,37.55
2022-07-28T12:31:38.920Z,37.63
2022-07-28T12:34:36.645Z,37.69
2022-07-28T12:37:34.099Z,37.74
2022-07-28T12:40:32.063Z,37.85
2022-07-28T12:43:31.052Z,37.92
2022-07-28T12:46:28.649Z,37.83
2022-07-28T12:49:26.466Z,37.80
2022-07-28T12:52:24.323Z,37.88
2022-07-28T12:55:22.377Z,37.90
2022-07-28T12:58:19.832Z,37.84
2022-07-28T13:01:17.409Z,37.73
2022-07-28T13:04:15.274Z,37.66
2022-07-28T13:07:13.284Z,37.62
2022-07-28T13:10:12.735Z,37.50
2022-07-28T13:13:10.442Z,37.53
2022-07-28T13:16:08.171Z,37.59
2022-07-28T13:19:05.856Z,37.57
2022-07-28T13:22:08.520Z,37.46
2022-07-28T13:25:06.532Z,37.31
2022-07-28T13:28:04.008Z,37.12
2022-07-28T13:31:01.495Z,37.09
2022-07-28T13:33:58.967Z,37.08
2022-07-28T13:36:57.206Z,37.08
2022-07-28T13:39:54.954Z,37.13
2022-07-28T13:42:56.868Z,37.20
2022-07-28T13:45:59.584Z,37.21
2022-07-28T13:49:00.326Z,37.15
2022-07-28T13:52:05.400Z,37.10
2022-07-28T13:55:10.502Z,37.04
2022-07-28T13:58:10.665Z,36.98
2022-07-28T14:01:08.175Z,36.87
2022-07-28T14:04:06.267Z,36.78
2022-07-28T14:07:03.767Z,36.56
2022-07-28T14:10:03.574Z,36.34
2022-07-28T14:13:04.587Z,36.22
2022-07-28T14:16:07.742Z,36.11
2022-07-28T14:19:08.509Z,36.07
2022-07-28T14:22:12.191Z,36.05
2022-07-28T14:25:11.087Z,36.07
2022-07-28T14:28:08.548Z,36.10
2022-07-28T14:31:06.014Z,36.11
2022-07-28T14:34:03.988Z,36.06
2022-07-28T14:37:05.617Z,35.99
2022-07-28T14:40:06.703Z,35.98
2022-07-28T14:43:04.196Z,35.95
2022-07-28T14:46:14.582Z,35.94
2022-07-28T14:49:14.153Z,35.94
2022-07-28T14:52:11.706Z,35.92
2022-07-28T14:55:09.160Z,35.89
2022-07-28T14:58:06.611Z,35.82
2022-07-28T15:01:04.112Z,35.73
2022-07-28T15:04:01.605Z,35.62
2022-07-28T15:06:59.084Z,35.52
2022-07-28T15:09:56.613Z,35.43
2022-07-28T15:12:54.071Z,35.31
2022-07-28T15:15:51.552Z,35.22
2022-07-28T15:18:49.080Z,35.11
2022-07-28T15:21:47.502Z,34.95
2022-07-28T15:24:45.814Z,34.76
2022-07-28T15:27:44.719Z,34.63
2022-07-28T15:30:50.682Z,34.47
2022-07-28T15:33:51.015Z,34.36
2022-07-28T15:36:56.229Z,34.28
2022-07-28T15:39:53.727Z,34.16
2022-07-28T15:42:51.455Z,34.01
2022-07-28T15:45:48.961Z,33.86
2022-07-28T15:48:47.254Z,33.72
2022-07-28T15:51:44.777Z,33.58
2022-07-28T15:54:42.285Z,33.42
2022-07-28T15:57:39.870Z,33.26
2022-07-28T16:00:37.352Z,33.14
2022-07-28T16:03:34.858Z,33.03
2022-07-28T16:06:50.262Z,32.82
2022-07-28T16:09:47.807Z,32.58
2022-07-28T16:12:45.292Z,32.32
2022-07-28T16:15:42.816Z,32.19
2022-07-28T16:18:40.353Z,32.08
2022-07-28T16:21:39.306Z,31.98
2022-07-28T16:24:36.838Z,31.88
2022-07-28T16:27:34.318Z,31.79
2022-07-28T16:30:35.825Z,31.70
2022-07-28T16:33:34.133Z,31.60
2022-07-28T16:36:31.714Z,31.51
2022-07-28T16:39:29.303Z,31.39
2022-07-28T16:42:26.783Z,31.27
2022-07-28T16:45:24.268Z,31.14
2022-07-28T16:48:28.425Z,31.01
2022-07-28T16:51:25.905Z,30.85
2022-07-28T16:54:23.432Z,30.71
2022-07-28T16:57:20.899Z,30.58
2022-07-28T17:00:18.411Z,30.45
2022-07-28T17:03:17.121Z,30.31
2022-07-28T17:06:14.650Z,30.18
2022-07-28T17:09:12.364Z,30.04
2022-07-28T17:12:10.329Z,29.91
2022-07-28T17:15:21.774Z,29.80
2022-07-28T17:18:20.492Z,29.66
2022-07-28T17:21:17.982Z,29.53
2022-07-28T17:24:16.049Z,29.41
2022-07-28T17:30:33.038Z,29.18
2022-07-28T17:33:31.216Z,29.07
2022-07-28T17:36:32.002Z,28.95
2022-07-28T17:39:30.125Z,28.83
2022-07-28T17:42:27.605Z,28.71
2022-07-28T17:45:25.090Z,28.59
2022-07-28T17:48:22.716Z,28.48
2022-07-28T17:51:20.167Z,28.39
2022-07-28T17:54:19.310Z,28.30
2022-07-28T17:57:19.134Z,28.22
2022-07-28T18:00:17.160Z,28.13
2022-07-28T18:03:15.771Z,28.05
2022-07-28T18:06:13.260Z,27.97
2022-07-28T18:09:11.621Z,27.88
2022-07-28T18:12:09.227Z,27.80
2022-07-28T18:15:06.698Z,27.70
2022-07-28T18:18:04.150Z,27.62
2022-07-28T18:21:01.786Z,27.53
2022-07-28T18:23:59.283Z,27.45
2022-07-28T18:26:56.757Z,27.37
2022-07-28T18:29:54.244Z,27.28
2022-07-28T18:32:51.749Z,27.18
2022-07-28T18:35:49.226Z,27.06
2022-07-28T18:38:46.746Z,26.96
2022-07-28T18:41:47.278Z,26.86
2022-07-28T18:44:45.297Z,26.75
2022-07-28T18:47:47.538Z,26.63
2022-07-28T18:50:45.575Z,26.52
2022-07-28T18:53:43.314Z,26.42
2022-07-28T18:56:40.819Z,26.30
2022-07-28T18:59:43.744Z,26.19
2022-07-28T19:02:43.100Z,26.07
2022-07-28T19:05:45.530Z,25.95
2022-07-28T19:08:43.591Z,25.82
2022-07-28T19:11:45.704Z,25.71
2022-07-28T19:14:43.941Z,25.59
2022-07-28T19:17:41.409Z,25.46
2022-07-28T19:20:38.883Z,25.34
2022-07-28T19:23:36.359Z,25.22
2022-07-28T19:26:34.535Z,25.11
2022-07-28T19:29:32.009Z,25.00
2022-07-28T19:32:29.489Z,24.88
2022-07-28T19:35:26.965Z,24.77
2022-07-28T19:38:24.454Z,24.67
2022-07-28T19:41:21.956Z,24.58
2022-07-28T19:44:19.440Z,24.49
2022-07-28T19:47:17.238Z,24.38
2022-07-28T19:50:14.759Z,24.28
2022-07-28T19:53:14.929Z,24.19
2022-07-28T19:56:13.131Z,24.08
2022-07-28T19:59:10.856Z,23.98
2022-07-28T20:02:08.445Z,23.89
2022-07-28T20:05:06.076Z,23.79
2022-07-28T20:08:03.553Z,23.70
2022-07-28T20:11:01.565Z,23.63
2022-07-28T20:13:59.034Z,23.56
2022-07-28T20:16:56.533Z,23.50
2022-07-28T20:19:54.043Z,23.42
2022-07-28T20:22:51.517Z,23.35
2022-07-28T20:25:49.028Z,23.28
2022-07-28T20:28:46.518Z,23.21
2022-07-28T20:31:44.013Z,23.14
2022-07-28T20:34:41.665Z,23.06
2022-07-28T20:37:39.173Z,22.98
2022-07-28T20:40:36.654Z,22.92
2022-07-28T20:43:36.197Z,22.85
2022-07-28T20:46:34.939Z,22.79
2022-07-28T20:49:32.489Z,22.74
2022-07-28T20:52:30.389Z,22.70
2022-07-28T20:55:28.633Z,22.64
2022-07-28T20:58:26.116Z,22.59
2022-07-28T21:01:26.183Z,22.53
2022-07-28T21:04:24.516Z,22.48
2022-07-28T21:08:05.254Z,22.42
2022-07-28T21:10:39.996Z,22.36
2022-07-28T21:13:40.437Z,22.31
2022-07-28T21:16:37.974Z,22.26
2022-07-28T21:19:35.501Z,22.22
2022-07-28T21:22:32.994Z,22.17
2022-07-28T21:25:30.461Z,22.12
2022-07-28T21:28:45.747Z,22.08
2022-07-28T21:32:04.856Z,22.03
2022-07-28T21:35:00.683Z,21.97
2022-07-28T21:37:58.509Z,21.92
2022-07-28T21:40:57.288Z,21.87
2022-07-28T21:43:58.692Z,21.81
2022-07-28T21:46:59.753Z,21.77
2022-07-28T21:49:57.241Z,21.73
2022-07-28T21:52:54.733Z,21.70
2022-07-28T21:55:52.866Z,21.64
2022-07-28T21:58:51.184Z,21.59
2022-07-28T22:01:48.753Z,21.54
2022-07-28T22:04:46.459Z,21.50
2022-07-28T22:07:44.109Z,21.45
2022-07-28T22:10:41.596Z,21.40
2022-07-28T22:13:39.097Z,21.35
2022-07-28T22:16:37.624Z,21.31
2022-07-28T22:19:35.183Z,21.26
2022-07-28T22:22:32.634Z,21.21
2022-07-28T22:25:30.128Z,21.17
2022-07-28T22:28:29.609Z,21.13
2022-07-28T22:31:28.015Z,21.11
2022-07-28T22:34:25.527Z,21.08
2022-07-28T22:37:22.994Z,21.04
2022-07-28T22:40:20.469Z,21.00
2022-07-28T22:43:17.958Z,20.97
2022-07-28T22:46:15.511Z,20.93
2022-07-28T22:49:13.082Z,20.90
2022-07-28T22:52:10.682Z,20.87
2022-07-28T22:55:08.171Z,20.85
2022-07-28T22:58:06.029Z,20.81
2022-07-28T23:01:03.661Z,20.77
2022-07-28T23:04:03.458Z,20.74
2022-07-28T23:07:01.010Z,20.71
2022-07-28T23:09:58.484Z,20.68
2022-07-28T23:12:58.560Z,20.65
2022-07-28T23:15:56.323Z,20.60
2022-07-28T23:18:53.804Z,20.57
2022-07-28T23:21:51.353Z,20.56
2022-07-28T23:24:48.880Z,20.53
2022-07-28T23:27:46.335Z,20.50
2022-07-28T23:30:43.823Z,20.47
2022-07-28T23:33:54.302Z,20.44
2022-07-28T23:36:54.793Z,20.40
2022-07-28T23:39:52.274Z,20.37
2022-07-28T23:42:49.875Z,20.35
2022-07-28T23:45:47.343Z,20.32
2022-07-28T23:48:44.853Z,20.28
2022-07-28T23:51:48.155Z,20.25
2022-07-28T23:54:46.139Z,20.21
2022-07-28T23:57:43.616Z,20.18
